Flight Track Log - Related Links

Times and Time Zones

All times are in EDT time to prevent confusion due to time zone crossing. See the EJM303 flight status page for this flight to view local times or setup timezone preferences in your user account.

Time Position Orientation Groundspeed Altitude Reporting Facility
EDT Latitude Longitude Course Direction KTS MPH feet Rate Location/Type
02:40PM 46.9711 -114.1900 313° West 222 255 7,200  Level Salt Lake Center
02:41PM 47.0264 -114.2764 313° West 268 308 10,800 2,806 Climbing Salt Lake Center
02:42PM 47.0986 -114.2217 27° Northeast 338 389 13,000 1,742 Climbing Salt Lake Center
02:43PM 47.0686 -114.0753 107° East 361 415 14,400 2,274 Climbing Salt Lake Center
02:44PM 47.0306 -113.9317 111° Southeast 378 435 17,700 2,952 Climbing Salt Lake Center
02:45PM 47.0000 -113.7775 106° East 390 449 20,500 2,323 Climbing Salt Lake Center
02:46PM 46.9689 -113.6214 106° East 400 460 22,500 1,161 Climbing Salt Lake Center
02:47PM 46.9328 -113.4461 107° East 453 521 22,900 242 Climbing Salt Lake Center
02:48PM 46.8953 -113.2586 106° East 480 552 23,000 48 Climbing Salt Lake Center
02:50PM 46.8569 -113.0731 107° East 478 550 23,000  Level Salt Lake Center
02:51PM 46.8144 -112.8750 107° East 463 533 23,000  Level Salt Lake Center
02:52PM 46.7783 -112.6967 106° East 460 529 23,000  Level Salt Lake Center
02:53PM 46.7414 -112.5208 107° East 458 527 23,000  Level Salt Lake Center
02:54PM 46.7039 -112.3503 108° East 447 514 23,000  Level Salt Lake Center
02:55PM 46.6611 -112.1511 107° East 435 501 23,000  Level Salt Lake Center
02:56PM 46.6211 -111.9731 108° East 451 519 23,000 -48 Level Salt Lake Center
02:57PM 46.5831 -111.7981 107° East 465 535 22,900  Descending Salt Lake Center
02:58PM 46.5456 -111.6242 107° East 456 525 23,000 48 Climbing Salt Lake Center
02:59PM 46.5086 -111.4597 108° East 438 504 23,000  Level Salt Lake Center
03:00PM 46.4664 -111.2717 108° East 416 479 23,000 145 Level Salt Lake Center
03:01PM 46.4317 -111.1167 108° East 400 460 23,300 677 Climbing Salt Lake Center
03:02PM 46.3961 -110.9672 109° East 405 466 24,400 823 Climbing Salt Lake Center
03:03PM 46.3581 -110.8081 109° East 436 502 25,000 146 Climbing Salt Lake Center
03:04PM 46.3039 -110.5981 110° East 462 532 24,700 -976 Descending Salt Lake Center
03:05PM 46.2656 -110.4258 108° East 456 525 23,000 -1,645 Descending Salt Lake Center
03:06PM 46.2286 -110.2667 108° East 430 495 21,300 -1,645 Descending Salt Lake Center
03:07PM 46.1931 -110.1164 109° East 404 465 19,600 -1,790 Descending Salt Lake Center
03:08PM 46.1594 -109.9742 109° East 381 438 17,600 -1,756 Descending Salt Lake Center
03:09PM 46.1261 -109.8375 109° East 368 423 16,000 -780 Descending Salt Lake Center
03:10PM 46.0919 -109.6867 108° East 339 390 16,000  Level Salt Lake Center
03:11PM 46.0967 -109.5464 87° East 354 407 16,000 -484 Level Salt Lake Center
03:12PM 46.1014 -109.3958 87° East 355 409 15,000 -1,366 Descending Salt Lake Center
03:13PM 46.1050 -109.2611 88° East 341 392 13,200 -1,951 Descending Salt Lake Center
03:14PM 46.1047 -109.1158 90° East 339 390 11,000 -2,032 Descending Salt Lake Center
03:15PM 46.0914 -108.9844 98° East 339 390 9,000 -1,984 Descending Salt Lake Center
03:16PM 46.0536 -108.8481 112° Southeast 342 394 6,900 -1,452 Descending Salt Lake Center
03:17PM 46.0158 -108.7286 114° Southeast 328 377 6,000 -439 Descending Salt Lake Center
03:18PM 45.9742 -108.6256 120° Southeast 303 349 6,000  Level Salt Lake Center
03:19PM 45.9308 -108.5181 120° Southeast 291 335 6,000 -194 Level Salt Lake Center
03:20PM 45.8747 -108.4308 133° Southeast 296 341 5,600 -339 Descending Salt Lake Center
03:21PM 45.8083 -108.3592 143° Southeast 279 321 5,300 -293 Descending Salt Lake Center
03:22PM 45.7733 -108.4075 224° Southwest 180 207 5,000 -585 Descending Salt Lake Center
03:24PM 45.7847 -108.4556 289° West 131 151 4,100 -871 Descending Salt Lake Center

Login

Don't have an account? Register now (free) for customized features, flight alerts, and more!